sensor_id;sensor_type;location;lat;lon;timestamp;P1;durP1;ratioP1;P2;durP2;ratioP2
6306;SDS011;3186;54.062;9.962;2023-01-15T00:01:16;7.10;;;1.93;;
6306;SDS011;3186;54.062;9.962;2023-01-15T00:03:44;10.17;;;1.90;;
6306;SDS011;3186;54.062;9.962;2023-01-15T00:06:10;7.00;;;1.53;;
6306;SDS011;3186;54.062;9.962;2023-01-15T00:08:35;10.10;;;2.00;;
6306;SDS011;3186;54.062;9.962;2023-01-15T00:11:02;11.40;;;1.77;;
6306;SDS011;3186;54.062;9.962;2023-01-15T00:13:28;9.60;;;1.63;;
6306;SDS011;3186;54.062;9.962;2023-01-15T00:16:01;8.33;;;2.13;;
6306;SDS011;3186;54.062;9.962;2023-01-15T00:18:35;9.87;;;1.90;;
6306;SDS011;3186;54.062;9.962;2023-01-15T00:21:01;7.57;;;1.50;;
6306;SDS011;3186;54.062;9.962;2023-01-15T00:23:28;5.43;;;1.70;;
6306;SDS011;3186;54.062;9.962;2023-01-15T00:26:13;7.10;;;1.53;;
6306;SDS011;3186;54.062;9.962;2023-01-15T00:28:59;8.00;;;1.37;;
6306;SDS011;3186;54.062;9.962;2023-01-15T00:31:26;7.10;;;1.30;;
6306;SDS011;3186;54.062;9.962;2023-01-15T00:33:53;8.00;;;1.30;;
6306;SDS011;3186;54.062;9.962;2023-01-15T00:36:18;4.60;;;1.60;;
6306;SDS011;3186;54.062;9.962;2023-01-15T00:38:44;8.80;;;1.40;;
6306;SDS011;3186;54.062;9.962;2023-01-15T00:41:10;8.20;;;1.50;;
6306;SDS011;3186;54.062;9.962;2023-01-15T00:43:36;6.27;;;1.30;;
6306;SDS011;3186;54.062;9.962;2023-01-15T00:46:01;8.20;;;1.73;;
6306;SDS011;3186;54.062;9.962;2023-01-15T00:48:29;7.20;;;1.13;;
6306;SDS011;3186;54.062;9.962;2023-01-15T00:50:56;5.40;;;1.40;;
6306;SDS011;3186;54.062;9.962;2023-01-15T00:53:22;4.43;;;1.57;;
6306;SDS011;3186;54.062;9.962;2023-01-15T00:55:47;4.33;;;1.23;;
6306;SDS011;3186;54.062;9.962;2023-01-15T00:58:13;7.37;;;1.37;;
6306;SDS011;3186;54.062;9.962;2023-01-15T01:00:39;6.17;;;1.20;;
6306;SDS011;3186;54.062;9.962;2023-01-15T01:03:05;4.90;;;1.77;;
6306;SDS011;3186;54.062;9.962;2023-01-15T01:05:31;6.90;;;1.53;;
6306;SDS011;3186;54.062;9.962;2023-01-15T01:07:58;9.17;;;1.33;;
6306;SDS011;3186;54.062;9.962;2023-01-15T01:10:25;6.93;;;1.17;;
6306;SDS011;3186;54.062;9.962;2023-01-15T01:12:51;7.27;;;1.40;;
6306;SDS011;3186;54.062;9.962;2023-01-15T01:15:21;10.57;;;1.90;;
6306;SDS011;3186;54.062;9.962;2023-01-15T01:17:48;4.60;;;1.00;;
6306;SDS011;3186;54.062;9.962;2023-01-15T01:20:14;4.07;;;1.10;;
6306;SDS011;3186;54.062;9.962;2023-01-15T01:22:41;5.70;;;1.30;;
6306;SDS011;3186;54.062;9.962;2023-01-15T01:25:07;3.93;;;1.30;;
6306;SDS011;3186;54.062;9.962;2023-01-15T01:27:35;3.47;;;1.17;;
6306;SDS011;3186;54.062;9.962;2023-01-15T01:30:01;7.27;;;1.67;;
6306;SDS011;3186;54.062;9.962;2023-01-15T01:32:27;5.07;;;1.43;;
6306;SDS011;3186;54.062;9.962;2023-01-15T01:34:55;6.00;;;1.60;;
6306;SDS011;3186;54.062;9.962;2023-01-15T01:37:22;7.17;;;1.27;;
6306;SDS011;3186;54.062;9.962;2023-01-15T01:39:48;6.33;;;1.40;;
6306;SDS011;3186;54.062;9.962;2023-01-15T01:42:15;4.87;;;1.40;;
6306;SDS011;3186;54.062;9.962;2023-01-15T01:47:14;7.10;;;1.83;;
6306;SDS011;3186;54.062;9.962;2023-01-15T01:49:47;7.47;;;1.97;;
6306;SDS011;3186;54.062;9.962;2023-01-15T01:52:18;7.40;;;1.30;;
6306;SDS011;3186;54.062;9.962;2023-01-15T01:54:51;6.10;;;1.40;;
6306;SDS011;3186;54.062;9.962;2023-01-15T01:57:17;5.47;;;1.40;;
6306;SDS011;3186;54.062;9.962;2023-01-15T01:59:45;10.90;;;1.77;;
6306;SDS011;3186;54.062;9.962;2023-01-15T02:02:12;5.17;;;1.57;;
6306;SDS011;3186;54.062;9.962;2023-01-15T02:04:40;4.73;;;1.47;;
6306;SDS011;3186;54.062;9.962;2023-01-15T02:07:07;4.60;;;1.00;;
6306;SDS011;3186;54.062;9.962;2023-01-15T02:09:33;6.87;;;1.60;;
6306;SDS011;3186;54.062;9.962;2023-01-15T02:12:01;3.80;;;1.33;;
6306;SDS011;3186;54.062;9.962;2023-01-15T02:17:55;7.20;;;1.37;;
6306;SDS011;3186;54.062;9.962;2023-01-15T02:20:52;10.93;;;1.70;;
6306;SDS011;3186;54.062;9.962;2023-01-15T02:29:42;6.70;;;1.70;;
6306;SDS011;3186;54.062;9.962;2023-01-15T02:32:12;5.80;;;1.30;;
6306;SDS011;3186;54.062;9.962;2023-01-15T02:34:49;5.60;;;1.83;;
6306;SDS011;3186;54.062;9.962;2023-01-15T02:37:21;7.27;;;1.43;;
6306;SDS011;3186;54.062;9.962;2023-01-15T02:39:55;6.37;;;1.70;;
6306;SDS011;3186;54.062;9.962;2023-01-15T02:42:24;5.27;;;1.43;;
6306;SDS011;3186;54.062;9.962;2023-01-15T02:44:53;7.93;;;1.40;;
6306;SDS011;3186;54.062;9.962;2023-01-15T02:47:24;5.70;;;1.27;;
6306;SDS011;3186;54.062;9.962;2023-01-15T02:49:56;4.33;;;1.37;;
6306;SDS011;3186;54.062;9.962;2023-01-15T02:52:36;3.80;;;1.30;;
6306;SDS011;3186;54.062;9.962;2023-01-15T02:55:15;5.53;;;1.63;;
6306;SDS011;3186;54.062;9.962;2023-01-15T02:57:48;4.03;;;1.47;;
6306;SDS011;3186;54.062;9.962;2023-01-15T03:00:18;6.80;;;1.30;;
6306;SDS011;3186;54.062;9.962;2023-01-15T03:02:53;5.03;;;1.50;;
6306;SDS011;3186;54.062;9.962;2023-01-15T03:05:26;8.87;;;1.60;;
6306;SDS011;3186;54.062;9.962;2023-01-15T03:08:01;7.17;;;1.30;;
6306;SDS011;3186;54.062;9.962;2023-01-15T03:10:45;7.53;;;1.97;;
6306;SDS011;3186;54.062;9.962;2023-01-15T03:13:16;6.83;;;1.63;;
6306;SDS011;3186;54.062;9.962;2023-01-15T03:16:31;8.77;;;1.63;;
6306;SDS011;3186;54.062;9.962;2023-01-15T03:19:08;7.13;;;1.53;;
6306;SDS011;3186;54.062;9.962;2023-01-15T03:25:03;8.20;;;1.80;;
6306;SDS011;3186;54.062;9.962;2023-01-15T03:27:38;8.47;;;1.90;;
6306;SDS011;3186;54.062;9.962;2023-01-15T03:32:32;7.43;;;1.70;;
6306;SDS011;3186;54.062;9.962;2023-01-15T03:34:58;11.07;;;1.93;;
6306;SDS011;3186;54.062;9.962;2023-01-15T03:37:26;7.43;;;1.87;;
6306;SDS011;3186;54.062;9.962;2023-01-15T03:39:53;6.27;;;1.70;;
6306;SDS011;3186;54.062;9.962;2023-01-15T03:45:14;8.43;;;1.70;;
6306;SDS011;3186;54.062;9.962;2023-01-15T03:52:57;7.20;;;1.60;;
6306;SDS011;3186;54.062;9.962;2023-01-15T03:55:39;9.63;;;1.90;;
6306;SDS011;3186;54.062;9.962;2023-01-15T03:58:17;6.90;;;1.90;;
6306;SDS011;3186;54.062;9.962;2023-01-15T04:00:57;6.20;;;1.77;;
6306;SDS011;3186;54.062;9.962;2023-01-15T04:03:26;7.53;;;2.07;;
6306;SDS011;3186;54.062;9.962;2023-01-15T04:05:56;4.70;;;1.87;;
6306;SDS011;3186;54.062;9.962;2023-01-15T04:08:27;5.67;;;1.77;;
6306;SDS011;3186;54.062;9.962;2023-01-15T04:10:57;8.93;;;1.77;;
6306;SDS011;3186;54.062;9.962;2023-01-15T04:13:29;5.93;;;1.73;;
6306;SDS011;3186;54.062;9.962;2023-01-15T04:15:55;6.63;;;1.70;;
6306;SDS011;3186;54.062;9.962;2023-01-15T04:18:22;6.77;;;1.63;;
6306;SDS011;3186;54.062;9.962;2023-01-15T04:20:48;8.70;;;1.87;;
6306;SDS011;3186;54.062;9.962;2023-01-15T04:23:14;9.77;;;2.07;;
6306;SDS011;3186;54.062;9.962;2023-01-15T04:25:40;4.10;;;1.40;;
6306;SDS011;3186;54.062;9.962;2023-01-15T04:28:07;9.23;;;1.73;;
6306;SDS011;3186;54.062;9.962;2023-01-15T04:30:33;8.97;;;1.80;;
6306;SDS011;3186;54.062;9.962;2023-01-15T04:33:00;11.67;;;2.03;;
6306;SDS011;3186;54.062;9.962;2023-01-15T04:35:26;5.83;;;1.70;;
6306;SDS011;3186;54.062;9.962;2023-01-15T04:37:55;11.97;;;2.20;;
6306;SDS011;3186;54.062;9.962;2023-01-15T04:40:22;8.27;;;2.27;;
6306;SDS011;3186;54.062;9.962;2023-01-15T04:43:07;9.67;;;2.20;;
6306;SDS011;3186;54.062;9.962;2023-01-15T04:46:02;12.70;;;2.10;;
6306;SDS011;3186;54.062;9.962;2023-01-15T04:48:27;7.60;;;1.73;;
6306;SDS011;3186;54.062;9.962;2023-01-15T04:50:55;9.80;;;2.27;;
6306;SDS011;3186;54.062;9.962;2023-01-15T04:53:21;8.57;;;1.83;;
6306;SDS011;3186;54.062;9.962;2023-01-15T04:55:47;10.00;;;2.10;;
6306;SDS011;3186;54.062;9.962;2023-01-15T04:58:12;9.30;;;2.10;;
6306;SDS011;3186;54.062;9.962;2023-01-15T05:00:38;8.83;;;1.90;;
6306;SDS011;3186;54.062;9.962;2023-01-15T05:03:04;9.97;;;2.33;;
6306;SDS011;3186;54.062;9.962;2023-01-15T05:05:31;12.77;;;2.73;;
6306;SDS011;3186;54.062;9.962;2023-01-15T05:08:00;9.30;;;2.50;;
6306;SDS011;3186;54.062;9.962;2023-01-15T05:10:26;9.63;;;1.93;;
6306;SDS011;3186;54.062;9.962;2023-01-15T05:12:51;13.80;;;2.20;;
6306;SDS011;3186;54.062;9.962;2023-01-15T05:15:17;12.67;;;2.93;;
6306;SDS011;3186;54.062;9.962;2023-01-15T05:17:43;10.07;;;2.60;;
6306;SDS011;3186;54.062;9.962;2023-01-15T05:20:09;10.33;;;2.10;;
6306;SDS011;3186;54.062;9.962;2023-01-15T05:22:35;8.17;;;2.03;;
6306;SDS011;3186;54.062;9.962;2023-01-15T05:25:01;12.53;;;2.40;;
6306;SDS011;3186;54.062;9.962;2023-01-15T05:27:27;9.67;;;2.10;;
6306;SDS011;3186;54.062;9.962;2023-01-15T05:29:53;9.40;;;2.10;;
6306;SDS011;3186;54.062;9.962;2023-01-15T05:32:18;7.87;;;2.00;;
6306;SDS011;3186;54.062;9.962;2023-01-15T05:34:44;9.60;;;2.33;;
6306;SDS011;3186;54.062;9.962;2023-01-15T05:37:10;14.13;;;2.40;;
6306;SDS011;3186;54.062;9.962;2023-01-15T05:39:36;14.07;;;2.07;;
6306;SDS011;3186;54.062;9.962;2023-01-15T05:42:02;11.97;;;2.50;;
6306;SDS011;3186;54.062;9.962;2023-01-15T05:44:28;5.77;;;1.90;;
6306;SDS011;3186;54.062;9.962;2023-01-15T05:46:56;10.43;;;2.23;;
6306;SDS011;3186;54.062;9.962;2023-01-15T05:49:25;10.87;;;2.30;;
6306;SDS011;3186;54.062;9.962;2023-01-15T05:51:52;11.57;;;2.57;;
6306;SDS011;3186;54.062;9.962;2023-01-15T05:54:20;9.47;;;2.13;;
6306;SDS011;3186;54.062;9.962;2023-01-15T05:56:48;11.63;;;2.70;;
6306;SDS011;3186;54.062;9.962;2023-01-15T05:59:15;11.93;;;2.27;;
6306;SDS011;3186;54.062;9.962;2023-01-15T06:01:43;9.47;;;2.33;;
6306;SDS011;3186;54.062;9.962;2023-01-15T06:04:09;10.37;;;1.90;;
6306;SDS011;3186;54.062;9.962;2023-01-15T06:06:35;10.03;;;2.90;;
6306;SDS011;3186;54.062;9.962;2023-01-15T06:09:02;10.03;;;2.23;;
6306;SDS011;3186;54.062;9.962;2023-01-15T06:11:28;8.27;;;1.63;;
6306;SDS011;3186;54.062;9.962;2023-01-15T06:13:54;13.93;;;2.47;;
6306;SDS011;3186;54.062;9.962;2023-01-15T06:16:20;8.50;;;2.13;;
6306;SDS011;3186;54.062;9.962;2023-01-15T06:18:46;9.40;;;2.23;;
6306;SDS011;3186;54.062;9.962;2023-01-15T06:21:12;9.30;;;2.67;;
6306;SDS011;3186;54.062;9.962;2023-01-15T06:23:39;9.40;;;2.33;;
6306;SDS011;3186;54.062;9.962;2023-01-15T06:26:06;7.43;;;2.53;;
6306;SDS011;3186;54.062;9.962;2023-01-15T06:28:36;12.93;;;2.00;;
6306;SDS011;3186;54.062;9.962;2023-01-15T06:31:06;11.80;;;1.70;;
6306;SDS011;3186;54.062;9.962;2023-01-15T06:33:33;10.57;;;2.40;;
6306;SDS011;3186;54.062;9.962;2023-01-15T06:36:06;6.83;;;2.40;;
6306;SDS011;3186;54.062;9.962;2023-01-15T06:38:34;11.00;;;2.50;;
6306;SDS011;3186;54.062;9.962;2023-01-15T06:41:01;10.70;;;2.27;;
6306;SDS011;3186;54.062;9.962;2023-01-15T06:43:29;10.70;;;2.20;;
6306;SDS011;3186;54.062;9.962;2023-01-15T06:46:13;9.93;;;2.30;;
6306;SDS011;3186;54.062;9.962;2023-01-15T06:48:59;7.57;;;2.27;;
6306;SDS011;3186;54.062;9.962;2023-01-15T06:51:25;7.87;;;2.20;;
6306;SDS011;3186;54.062;9.962;2023-01-15T06:53:51;10.60;;;2.30;;
6306;SDS011;3186;54.062;9.962;2023-01-15T06:56:17;7.37;;;2.07;;
6306;SDS011;3186;54.062;9.962;2023-01-15T06:58:43;17.03;;;3.00;;
6306;SDS011;3186;54.062;9.962;2023-01-15T07:01:10;12.33;;;2.50;;
6306;SDS011;3186;54.062;9.962;2023-01-15T07:03:38;10.27;;;2.10;;
6306;SDS011;3186;54.062;9.962;2023-01-15T07:06:04;9.70;;;2.73;;
6306;SDS011;3186;54.062;9.962;2023-01-15T07:08:35;11.30;;;2.47;;
6306;SDS011;3186;54.062;9.962;2023-01-15T07:11:02;8.67;;;2.17;;
6306;SDS011;3186;54.062;9.962;2023-01-15T07:13:29;11.57;;;2.63;;
6306;SDS011;3186;54.062;9.962;2023-01-15T07:15:56;12.30;;;2.20;;
6306;SDS011;3186;54.062;9.962;2023-01-15T07:18:23;8.20;;;2.30;;
6306;SDS011;3186;54.062;9.962;2023-01-15T07:20:49;8.93;;;2.80;;
6306;SDS011;3186;54.062;9.962;2023-01-15T07:23:20;15.47;;;2.60;;
6306;SDS011;3186;54.062;9.962;2023-01-15T07:25:46;11.37;;;2.23;;
6306;SDS011;3186;54.062;9.962;2023-01-15T07:28:11;9.87;;;2.23;;
6306;SDS011;3186;54.062;9.962;2023-01-15T07:30:37;10.63;;;2.20;;
6306;SDS011;3186;54.062;9.962;2023-01-15T07:33:03;10.87;;;2.10;;
6306;SDS011;3186;54.062;9.962;2023-01-15T07:35:29;13.30;;;2.60;;
6306;SDS011;3186;54.062;9.962;2023-01-15T07:37:55;13.87;;;2.70;;
6306;SDS011;3186;54.062;9.962;2023-01-15T07:40:21;9.63;;;2.47;;
6306;SDS011;3186;54.062;9.962;2023-01-15T07:42:46;12.57;;;2.20;;
6306;SDS011;3186;54.062;9.962;2023-01-15T07:45:31;8.83;;;2.30;;
6306;SDS011;3186;54.062;9.962;2023-01-15T07:48:15;9.53;;;2.63;;
6306;SDS011;3186;54.062;9.962;2023-01-15T07:50:59;11.90;;;2.30;;
6306;SDS011;3186;54.062;9.962;2023-01-15T07:53:25;13.93;;;2.10;;
6306;SDS011;3186;54.062;9.962;2023-01-15T07:55:51;10.77;;;2.20;;
6306;SDS011;3186;54.062;9.962;2023-01-15T07:58:17;18.37;;;3.53;;
6306;SDS011;3186;54.062;9.962;2023-01-15T08:00:43;15.17;;;3.40;;
6306;SDS011;3186;54.062;9.962;2023-01-15T08:03:08;11.40;;;2.20;;
6306;SDS011;3186;54.062;9.962;2023-01-15T08:05:34;15.90;;;2.57;;
6306;SDS011;3186;54.062;9.962;2023-01-15T08:08:00;9.77;;;2.30;;
6306;SDS011;3186;54.062;9.962;2023-01-15T08:10:25;8.07;;;2.60;;
6306;SDS011;3186;54.062;9.962;2023-01-15T08:12:51;11.63;;;2.03;;
6306;SDS011;3186;54.062;9.962;2023-01-15T08:15:39;12.57;;;2.87;;
6306;SDS011;3186;54.062;9.962;2023-01-15T08:18:07;11.60;;;2.47;;
6306;SDS011;3186;54.062;9.962;2023-01-15T08:20:34;13.60;;;2.73;;
6306;SDS011;3186;54.062;9.962;2023-01-15T08:23:01;13.97;;;2.40;;
6306;SDS011;3186;54.062;9.962;2023-01-15T08:25:27;10.17;;;2.57;;
6306;SDS011;3186;54.062;9.962;2023-01-15T08:27:53;13.63;;;2.57;;
6306;SDS011;3186;54.062;9.962;2023-01-15T08:30:20;12.00;;;2.10;;
6306;SDS011;3186;54.062;9.962;2023-01-15T08:32:50;7.87;;;2.20;;
6306;SDS011;3186;54.062;9.962;2023-01-15T08:35:18;10.47;;;2.33;;
6306;SDS011;3186;54.062;9.962;2023-01-15T08:37:44;7.57;;;1.90;;
6306;SDS011;3186;54.062;9.962;2023-01-15T08:40:10;14.50;;;2.47;;
6306;SDS011;3186;54.062;9.962;2023-01-15T08:42:37;12.67;;;2.87;;
6306;SDS011;3186;54.062;9.962;2023-01-15T08:45:03;11.33;;;2.57;;
6306;SDS011;3186;54.062;9.962;2023-01-15T08:47:29;9.90;;;2.50;;
6306;SDS011;3186;54.062;9.962;2023-01-15T08:49:56;10.33;;;2.10;;
6306;SDS011;3186;54.062;9.962;2023-01-15T08:52:22;14.13;;;2.30;;
6306;SDS011;3186;54.062;9.962;2023-01-15T08:54:48;12.57;;;2.40;;
6306;SDS011;3186;54.062;9.962;2023-01-15T08:57:13;12.03;;;2.10;;
6306;SDS011;3186;54.062;9.962;2023-01-15T08:59:39;9.63;;;2.10;;
6306;SDS011;3186;54.062;9.962;2023-01-15T09:02:09;10.27;;;2.33;;
6306;SDS011;3186;54.062;9.962;2023-01-15T09:04:37;12.90;;;2.03;;
6306;SDS011;3186;54.062;9.962;2023-01-15T09:07:03;11.80;;;2.57;;
6306;SDS011;3186;54.062;9.962;2023-01-15T09:09:29;13.03;;;2.27;;
6306;SDS011;3186;54.062;9.962;2023-01-15T09:11:55;7.90;;;2.30;;
6306;SDS011;3186;54.062;9.962;2023-01-15T09:14:20;7.97;;;1.90;;
6306;SDS011;3186;54.062;9.962;2023-01-15T09:16:46;10.77;;;2.23;;
6306;SDS011;3186;54.062;9.962;2023-01-15T09:19:12;14.73;;;2.23;;
6306;SDS011;3186;54.062;9.962;2023-01-15T09:21:38;12.27;;;2.20;;
6306;SDS011;3186;54.062;9.962;2023-01-15T09:24:04;9.93;;;2.00;;
6306;SDS011;3186;54.062;9.962;2023-01-15T09:26:31;12.60;;;2.50;;
6306;SDS011;3186;54.062;9.962;2023-01-15T09:29:01;15.73;;;2.57;;
6306;SDS011;3186;54.062;9.962;2023-01-15T09:31:28;8.03;;;2.27;;
6306;SDS011;3186;54.062;9.962;2023-01-15T09:33:55;8.67;;;1.80;;
6306;SDS011;3186;54.062;9.962;2023-01-15T09:36:26;11.40;;;2.27;;
6306;SDS011;3186;54.062;9.962;2023-01-15T09:38:57;12.67;;;2.17;;
6306;SDS011;3186;54.062;9.962;2023-01-15T09:41:24;13.43;;;2.50;;
6306;SDS011;3186;54.062;9.962;2023-01-15T09:44:18;11.70;;;2.07;;
6306;SDS011;3186;54.062;9.962;2023-01-15T09:47:01;9.20;;;2.23;;
6306;SDS011;3186;54.062;9.962;2023-01-15T09:52:46;10.03;;;1.93;;
6306;SDS011;3186;54.062;9.962;2023-01-15T09:57:43;14.73;;;2.33;;
6306;SDS011;3186;54.062;9.962;2023-01-15T10:00:18;5.13;;;1.57;;
6306;SDS011;3186;54.062;9.962;2023-01-15T10:02:47;6.63;;;1.93;;
6306;SDS011;3186;54.062;9.962;2023-01-15T10:05:34;8.40;;;1.73;;
6306;SDS011;3186;54.062;9.962;2023-01-15T10:08:03;6.67;;;1.53;;
6306;SDS011;3186;54.062;9.962;2023-01-15T10:10:31;6.20;;;1.67;;
6306;SDS011;3186;54.062;9.962;2023-01-15T10:13:08;4.57;;;1.70;;
6306;SDS011;3186;54.062;9.962;2023-01-15T10:15:51;4.83;;;1.90;;
6306;SDS011;3186;54.062;9.962;2023-01-15T10:18:20;11.33;;;1.90;;
6306;SDS011;3186;54.062;9.962;2023-01-15T10:31:49;9.97;;;2.20;;
6306;SDS011;3186;54.062;9.962;2023-01-15T10:37:16;8.97;;;1.77;;
6306;SDS011;3186;54.062;9.962;2023-01-15T10:47:38;6.27;;;1.67;;
6306;SDS011;3186;54.062;9.962;2023-01-15T10:52:45;8.90;;;1.43;;
6306;SDS011;3186;54.062;9.962;2023-01-15T10:58:13;11.20;;;1.97;;
6306;SDS011;3186;54.062;9.962;2023-01-15T11:00:41;8.50;;;1.77;;
6306;SDS011;3186;54.062;9.962;2023-01-15T11:03:15;7.83;;;1.70;;
6306;SDS011;3186;54.062;9.962;2023-01-15T11:05:46;8.20;;;1.70;;
6306;SDS011;3186;54.062;9.962;2023-01-15T11:08:24;8.10;;;2.17;;
6306;SDS011;3186;54.062;9.962;2023-01-15T11:10:55;8.63;;;2.03;;
6306;SDS011;3186;54.062;9.962;2023-01-15T11:13:25;6.67;;;2.00;;
6306;SDS011;3186;54.062;9.962;2023-01-15T11:16:13;8.33;;;1.53;;
6306;SDS011;3186;54.062;9.962;2023-01-15T11:18:50;10.57;;;1.63;;
6306;SDS011;3186;54.062;9.962;2023-01-15T11:21:34;10.87;;;1.60;;
6306;SDS011;3186;54.062;9.962;2023-01-15T11:24:11;13.27;;;2.23;;
6306;SDS011;3186;54.062;9.962;2023-01-15T11:26:39;9.67;;;2.07;;
6306;SDS011;3186;54.062;9.962;2023-01-15T11:29:19;13.30;;;1.90;;
6306;SDS011;3186;54.062;9.962;2023-01-15T11:31:51;6.30;;;1.90;;
6306;SDS011;3186;54.062;9.962;2023-01-15T11:34:18;5.77;;;1.50;;
6306;SDS011;3186;54.062;9.962;2023-01-15T11:36:46;8.67;;;1.83;;
6306;SDS011;3186;54.062;9.962;2023-01-15T11:39:20;10.90;;;1.90;;
6306;SDS011;3186;54.062;9.962;2023-01-15T11:41:46;8.60;;;1.90;;
6306;SDS011;3186;54.062;9.962;2023-01-15T11:44:31;6.67;;;1.40;;
6306;SDS011;3186;54.062;9.962;2023-01-15T11:47:16;10.47;;;1.57;;
6306;SDS011;3186;54.062;9.962;2023-01-15T11:50:02;3.70;;;1.40;;
6306;SDS011;3186;54.062;9.962;2023-01-15T11:52:59;6.73;;;1.70;;
6306;SDS011;3186;54.062;9.962;2023-01-15T11:55:25;3.87;;;1.70;;
6306;SDS011;3186;54.062;9.962;2023-01-15T11:57:52;6.77;;;2.03;;
6306;SDS011;3186;54.062;9.962;2023-01-15T12:00:24;6.20;;;1.57;;
6306;SDS011;3186;54.062;9.962;2023-01-15T12:02:53;5.47;;;1.40;;
6306;SDS011;3186;54.062;9.962;2023-01-15T12:05:33;11.27;;;1.90;;
6306;SDS011;3186;54.062;9.962;2023-01-15T12:08:00;18.23;;;4.67;;
6306;SDS011;3186;54.062;9.962;2023-01-15T12:22:06;8.43;;;2.10;;
6306;SDS011;3186;54.062;9.962;2023-01-15T12:30:18;6.53;;;1.67;;
6306;SDS011;3186;54.062;9.962;2023-01-15T12:32:51;11.73;;;2.10;;
6306;SDS011;3186;54.062;9.962;2023-01-15T12:35:43;5.37;;;1.30;;
6306;SDS011;3186;54.062;9.962;2023-01-15T12:38:33;10.13;;;1.57;;
6306;SDS011;3186;54.062;9.962;2023-01-15T12:41:14;4.23;;;1.43;;
6306;SDS011;3186;54.062;9.962;2023-01-15T12:43:48;7.10;;;1.30;;
6306;SDS011;3186;54.062;9.962;2023-01-15T12:46:37;5.20;;;1.40;;
6306;SDS011;3186;54.062;9.962;2023-01-15T12:51:59;4.30;;;0.90;;
6306;SDS011;3186;54.062;9.962;2023-01-15T12:54:40;3.43;;;1.30;;
6306;SDS011;3186;54.062;9.962;2023-01-15T12:57:17;3.63;;;1.20;;
6306;SDS011;3186;54.062;9.962;2023-01-15T13:03:14;4.53;;;0.90;;
6306;SDS011;3186;54.062;9.962;2023-01-15T13:06:01;4.37;;;0.80;;
6306;SDS011;3186;54.062;9.962;2023-01-15T13:08:37;4.57;;;1.00;;
6306;SDS011;3186;54.062;9.962;2023-01-15T13:11:04;3.77;;;1.00;;
6306;SDS011;3186;54.062;9.962;2023-01-15T13:13:32;6.10;;;1.07;;
6306;SDS011;3186;54.062;9.962;2023-01-15T13:16:12;3.83;;;1.00;;
6306;SDS011;3186;54.062;9.962;2023-01-15T13:21:35;2.90;;;1.30;;
6306;SDS011;3186;54.062;9.962;2023-01-15T13:24:21;2.70;;;0.77;;
6306;SDS011;3186;54.062;9.962;2023-01-15T13:32:52;2.10;;;0.90;;
6306;SDS011;3186;54.062;9.962;2023-01-15T13:35:28;2.50;;;1.00;;
6306;SDS011;3186;54.062;9.962;2023-01-15T13:37:56;6.70;;;1.30;;
6306;SDS011;3186;54.062;9.962;2023-01-15T13:40:26;2.60;;;1.33;;
6306;SDS011;3186;54.062;9.962;2023-01-15T13:42:57;7.13;;;1.40;;
6306;SDS011;3186;54.062;9.962;2023-01-15T13:45:36;5.53;;;1.53;;
6306;SDS011;3186;54.062;9.962;2023-01-15T13:50:38;6.10;;;1.70;;
6306;SDS011;3186;54.062;9.962;2023-01-15T13:53:15;5.90;;;1.33;;
6306;SDS011;3186;54.062;9.962;2023-01-15T13:55:55;8.40;;;2.20;;
6306;SDS011;3186;54.062;9.962;2023-01-15T13:58:30;3.97;;;1.70;;
6306;SDS011;3186;54.062;9.962;2023-01-15T14:01:03;4.93;;;1.50;;
6306;SDS011;3186;54.062;9.962;2023-01-15T14:03:51;5.90;;;1.43;;
6306;SDS011;3186;54.062;9.962;2023-01-15T14:09:11;7.20;;;1.47;;
6306;SDS011;3186;54.062;9.962;2023-01-15T14:27:44;6.83;;;1.53;;
6306;SDS011;3186;54.062;9.962;2023-01-15T14:36:28;7.13;;;1.87;;
6306;SDS011;3186;54.062;9.962;2023-01-15T14:38:59;4.30;;;1.33;;
6306;SDS011;3186;54.062;9.962;2023-01-15T14:41:28;8.53;;;1.80;;
6306;SDS011;3186;54.062;9.962;2023-01-15T14:43:56;10.33;;;2.00;;
6306;SDS011;3186;54.062;9.962;2023-01-15T14:46:26;3.90;;;1.03;;
6306;SDS011;3186;54.062;9.962;2023-01-15T14:48:55;4.70;;;1.50;;
6306;SDS011;3186;54.062;9.962;2023-01-15T14:51:25;6.80;;;1.37;;
6306;SDS011;3186;54.062;9.962;2023-01-15T14:53:57;6.27;;;1.77;;
6306;SDS011;3186;54.062;9.962;2023-01-15T14:56:36;6.30;;;1.40;;
6306;SDS011;3186;54.062;9.962;2023-01-15T14:59:15;8.80;;;1.83;;
6306;SDS011;3186;54.062;9.962;2023-01-15T15:01:50;6.50;;;1.60;;
6306;SDS011;3186;54.062;9.962;2023-01-15T15:04:21;9.10;;;1.63;;
6306;SDS011;3186;54.062;9.962;2023-01-15T15:07:02;6.40;;;2.40;;
6306;SDS011;3186;54.062;9.962;2023-01-15T15:18:12;3.53;;;1.20;;
6306;SDS011;3186;54.062;9.962;2023-01-15T15:23:12;1.63;;;1.23;;
6306;SDS011;3186;54.062;9.962;2023-01-15T15:25:47;2.67;;;1.07;;
6306;SDS011;3186;54.062;9.962;2023-01-15T15:28:27;2.67;;;0.97;;
6306;SDS011;3186;54.062;9.962;2023-01-15T15:30:55;2.33;;;1.10;;
6306;SDS011;3186;54.062;9.962;2023-01-15T15:33:33;3.33;;;1.10;;
6306;SDS011;3186;54.062;9.962;2023-01-15T15:36:03;3.70;;;1.10;;
6306;SDS011;3186;54.062;9.962;2023-01-15T15:38:30;2.23;;;1.30;;
6306;SDS011;3186;54.062;9.962;2023-01-15T15:41:00;3.00;;;0.90;;
6306;SDS011;3186;54.062;9.962;2023-01-15T15:46:35;6.60;;;1.53;;
6306;SDS011;3186;54.062;9.962;2023-01-15T15:49:20;5.60;;;1.20;;
6306;SDS011;3186;54.062;9.962;2023-01-15T15:51:52;2.10;;;1.20;;
6306;SDS011;3186;54.062;9.962;2023-01-15T15:54:25;4.07;;;1.10;;
6306;SDS011;3186;54.062;9.962;2023-01-15T15:59:46;6.97;;;1.17;;
6306;SDS011;3186;54.062;9.962;2023-01-15T16:02:19;5.20;;;1.17;;
6306;SDS011;3186;54.062;9.962;2023-01-15T16:04:49;2.63;;;1.00;;
6306;SDS011;3186;54.062;9.962;2023-01-15T16:09:52;7.07;;;1.57;;
6306;SDS011;3186;54.062;9.962;2023-01-15T16:12:21;1.93;;;0.93;;
6306;SDS011;3186;54.062;9.962;2023-01-15T16:14:49;5.70;;;1.27;;
6306;SDS011;3186;54.062;9.962;2023-01-15T16:17:15;2.70;;;1.30;;
6306;SDS011;3186;54.062;9.962;2023-01-15T16:19:42;3.63;;;1.20;;
6306;SDS011;3186;54.062;9.962;2023-01-15T16:22:10;1.50;;;1.10;;
6306;SDS011;3186;54.062;9.962;2023-01-15T16:24:41;1.83;;;1.00;;
6306;SDS011;3186;54.062;9.962;2023-01-15T16:27:18;4.13;;;1.43;;
6306;SDS011;3186;54.062;9.962;2023-01-15T16:29:49;4.00;;;1.00;;
6306;SDS011;3186;54.062;9.962;2023-01-15T16:32:19;3.17;;;1.00;;
6306;SDS011;3186;54.062;9.962;2023-01-15T16:34:59;3.57;;;1.30;;
6306;SDS011;3186;54.062;9.962;2023-01-15T16:37:32;2.53;;;1.20;;
6306;SDS011;3186;54.062;9.962;2023-01-15T16:40:02;2.53;;;1.00;;
6306;SDS011;3186;54.062;9.962;2023-01-15T16:42:30;4.60;;;1.20;;
6306;SDS011;3186;54.062;9.962;2023-01-15T16:45:23;3.63;;;1.20;;
6306;SDS011;3186;54.062;9.962;2023-01-15T16:50:39;1.50;;;1.00;;
6306;SDS011;3186;54.062;9.962;2023-01-15T16:53:27;3.50;;;1.10;;
6306;SDS011;3186;54.062;9.962;2023-01-15T16:55:55;3.93;;;1.27;;
6306;SDS011;3186;54.062;9.962;2023-01-15T16:58:39;4.83;;;1.37;;
6306;SDS011;3186;54.062;9.962;2023-01-15T17:06:55;5.43;;;1.50;;
6306;SDS011;3186;54.062;9.962;2023-01-15T17:09:24;7.67;;;1.67;;
6306;SDS011;3186;54.062;9.962;2023-01-15T17:11:50;4.60;;;1.50;;
6306;SDS011;3186;54.062;9.962;2023-01-15T17:14:21;3.60;;;1.50;;
6306;SDS011;3186;54.062;9.962;2023-01-15T17:19:45;3.00;;;1.20;;
6306;SDS011;3186;54.062;9.962;2023-01-15T17:22:22;5.73;;;1.40;;
6306;SDS011;3186;54.062;9.962;2023-01-15T17:24:56;6.17;;;1.57;;
6306;SDS011;3186;54.062;9.962;2023-01-15T17:27:24;5.50;;;1.37;;
6306;SDS011;3186;54.062;9.962;2023-01-15T17:29:51;6.83;;;1.90;;
6306;SDS011;3186;54.062;9.962;2023-01-15T17:32:25;4.20;;;1.43;;
6306;SDS011;3186;54.062;9.962;2023-01-15T17:34:55;3.33;;;1.30;;
6306;SDS011;3186;54.062;9.962;2023-01-15T17:37:21;8.43;;;1.50;;
6306;SDS011;3186;54.062;9.962;2023-01-15T17:39:47;8.97;;;1.73;;
6306;SDS011;3186;54.062;9.962;2023-01-15T17:42:13;5.97;;;1.60;;
6306;SDS011;3186;54.062;9.962;2023-01-15T17:44:41;4.97;;;1.57;;
6306;SDS011;3186;54.062;9.962;2023-01-15T17:47:07;6.20;;;1.80;;
6306;SDS011;3186;54.062;9.962;2023-01-15T17:49:33;4.67;;;1.40;;
6306;SDS011;3186;54.062;9.962;2023-01-15T17:51:59;4.33;;;1.80;;
6306;SDS011;3186;54.062;9.962;2023-01-15T17:54:26;5.03;;;1.57;;
6306;SDS011;3186;54.062;9.962;2023-01-15T17:57:10;4.57;;;2.00;;
6306;SDS011;3186;54.062;9.962;2023-01-15T17:59:55;6.73;;;1.70;;
6306;SDS011;3186;54.062;9.962;2023-01-15T18:02:39;8.87;;;2.20;;
6306;SDS011;3186;54.062;9.962;2023-01-15T18:05:25;5.00;;;1.77;;